createdAt,value
2022-10-13T00:01:35.482Z,30.70
2022-10-13T00:06:21.662Z,27.53
2022-10-13T00:11:12.000Z,30.13
2022-10-13T00:15:57.146Z,40.53
2022-10-13T00:20:43.902Z,44.10
2022-10-13T00:25:27.389Z,44.37
2022-10-13T00:30:11.641Z,33.03
2022-10-13T00:34:57.891Z,24.57
2022-10-13T00:39:41.443Z,33.47
2022-10-13T00:45:04.539Z,28.00
2022-10-13T00:49:48.169Z,25.23
2022-10-13T00:54:33.875Z,27.37
2022-10-13T00:59:23.274Z,24.23
2022-10-13T01:04:06.932Z,17.47
2022-10-13T01:08:50.521Z,26.43
2022-10-13T01:13:42.339Z,18.90
2022-10-13T01:18:36.508Z,25.77
2022-10-13T01:23:46.654Z,21.97
2022-10-13T01:28:54.325Z,29.67
2022-10-13T01:33:45.331Z,22.70
2022-10-13T01:38:39.334Z,30.77
2022-10-13T01:43:26.839Z,25.47
2022-10-13T01:48:12.032Z,56.23
2022-10-13T01:52:59.836Z,27.93
2022-10-13T01:57:48.484Z,42.07
2022-10-13T02:02:38.511Z,35.13
2022-10-13T02:07:25.637Z,33.30
2022-10-13T02:12:13.867Z,33.70
2022-10-13T02:16:58.969Z,25.37
2022-10-13T02:21:42.899Z,30.43
2022-10-13T02:26:26.768Z,32.33
2022-10-13T02:31:11.663Z,34.40
2022-10-13T02:35:55.114Z,30.07
2022-10-13T02:40:38.571Z,28.63
2022-10-13T02:45:22.287Z,30.80
2022-10-13T02:50:08.056Z,25.10
2022-10-13T02:54:54.374Z,26.60
2022-10-13T02:59:37.807Z,34.23
2022-10-13T03:04:21.265Z,21.03
2022-10-13T03:09:06.590Z,24.00
2022-10-13T03:13:50.036Z,19.83
2022-10-13T03:18:33.424Z,16.57
2022-10-13T03:23:16.851Z,15.77
2022-10-13T03:28:01.777Z,16.13
2022-10-13T03:32:45.271Z,20.00
2022-10-13T03:37:30.832Z,9.20
2022-10-13T03:42:14.333Z,18.53
2022-10-13T03:46:59.208Z,17.97
2022-10-13T03:51:42.681Z,23.10
2022-10-13T03:56:28.676Z,30.77
2022-10-13T04:01:14.021Z,22.60
2022-10-13T04:06:02.040Z,28.87
2022-10-13T04:10:45.561Z,33.30
2022-10-13T04:15:29.250Z,26.80
2022-10-13T04:20:13.694Z,21.00
2022-10-13T04:24:58.559Z,23.10
2022-10-13T04:29:42.034Z,29.40
2022-10-13T04:34:25.515Z,30.13
2022-10-13T04:39:08.952Z,42.17
2022-10-13T04:43:55.023Z,32.10
2022-10-13T04:48:38.651Z,25.93
2022-10-13T04:53:22.703Z,24.50
2022-10-13T04:58:06.186Z,12.93
2022-10-13T05:02:51.175Z,18.07
2022-10-13T05:07:34.610Z,25.07
2022-10-13T05:12:18.327Z,18.13
2022-10-13T05:17:02.260Z,43.20
2022-10-13T05:21:47.166Z,23.77
2022-10-13T05:26:32.280Z,21.03
2022-10-13T05:31:17.469Z,26.87
2022-10-13T05:36:05.809Z,27.93
2022-10-13T05:40:50.647Z,21.57
2022-10-13T05:45:34.691Z,24.77
2022-10-13T05:50:18.822Z,24.63
2022-10-13T05:55:05.054Z,18.67
2022-10-13T05:59:54.990Z,18.73
2022-10-13T06:04:42.364Z,19.93
2022-10-13T06:09:25.783Z,21.37
2022-10-13T06:14:09.245Z,16.43
2022-10-13T06:18:54.060Z,18.80
2022-10-13T06:23:37.501Z,18.13
2022-10-13T06:28:22.367Z,16.83
2022-10-13T06:33:06.053Z,17.50
2022-10-13T06:37:51.081Z,14.90
2022-10-13T06:42:34.885Z,15.60
2022-10-13T06:47:18.642Z,12.80
2022-10-13T06:52:02.085Z,18.40
2022-10-13T06:56:46.979Z,17.67
2022-10-13T07:01:30.528Z,23.53
2022-10-13T07:06:14.045Z,26.70
2022-10-13T07:23:43.220Z,22.27
2022-10-13T07:28:28.476Z,18.50
2022-10-13T07:33:12.380Z,28.47
2022-10-13T07:37:55.874Z,21.70
2022-10-13T07:42:39.488Z,20.43
2022-10-13T07:47:24.406Z,18.37
2022-10-13T07:52:07.893Z,23.77
2022-10-13T07:56:53.717Z,19.67
2022-10-13T08:01:37.960Z,21.33
2022-10-13T08:06:23.096Z,26.13
2022-10-13T08:11:09.554Z,25.73
2022-10-13T08:15:54.198Z,27.97
2022-10-13T08:20:43.495Z,19.33
2022-10-13T08:25:28.959Z,17.80
2022-10-13T08:30:13.498Z,23.65
2022-10-13T08:34:57.013Z,20.15
2022-10-13T08:39:40.616Z,14.15
2022-10-13T08:45:10.456Z,17.25
2022-10-13T08:49:35.314Z,17.50
2022-10-13T08:54:22.371Z,16.83
2022-10-13T08:59:06.951Z,16.05
2022-10-13T09:03:55.394Z,14.27
2022-10-13T09:08:44.212Z,12.52
2022-10-13T09:13:27.702Z,11.50
2022-10-13T09:18:13.641Z,11.23
2022-10-13T09:23:05.257Z,19.20
2022-10-13T09:27:53.000Z,13.32
2022-10-13T09:32:37.379Z,18.58
2022-10-13T09:37:23.901Z,16.67
2022-10-13T09:42:22.739Z,13.98
2022-10-13T09:47:06.756Z,8.90
2022-10-13T09:51:50.651Z,15.10
2022-10-13T09:56:41.058Z,13.57
2022-10-13T10:01:31.516Z,10.15
2022-10-13T10:06:19.101Z,11.68
2022-10-13T10:11:05.088Z,10.75
2022-10-13T10:15:55.397Z,9.88
2022-10-13T10:21:01.732Z,12.80
2022-10-13T10:25:49.839Z,12.05
2022-10-13T10:30:37.618Z,9.98
2022-10-13T10:35:31.550Z,10.10
2022-10-13T10:40:30.034Z,7.80
2022-10-13T10:45:24.999Z,10.63
2022-10-13T10:50:10.009Z,10.65
2022-10-13T10:54:58.284Z,10.00
2022-10-13T10:59:52.907Z,11.65
2022-10-13T11:04:44.754Z,12.15
2022-10-13T11:10:03.169Z,10.20
2022-10-13T11:14:49.248Z,9.82
2022-10-13T11:19:34.711Z,7.85
2022-10-13T11:24:50.778Z,10.60
2022-10-13T11:29:58.214Z,12.90
2022-10-13T11:34:59.588Z,14.63
2022-10-13T11:40:16.484Z,9.27
2022-10-13T11:45:04.032Z,10.05
2022-10-13T11:50:02.839Z,9.27
2022-10-13T11:54:51.853Z,8.15
2022-10-13T11:59:37.799Z,15.55
2022-10-13T12:04:24.253Z,9.40
2022-10-13T12:09:18.269Z,11.82
2022-10-13T12:14:02.794Z,10.52
2022-10-13T12:18:46.584Z,10.32
2022-10-13T12:23:32.696Z,8.05
2022-10-13T12:28:20.782Z,4.72
2022-10-13T12:33:06.360Z,10.23
2022-10-13T12:37:50.710Z,11.23
2022-10-13T12:42:39.137Z,9.43
2022-10-13T12:47:40.860Z,11.48
2022-10-13T12:52:26.330Z,10.43
2022-10-13T12:57:19.918Z,13.57
2022-10-13T13:02:20.716Z,13.43
2022-10-13T13:07:06.240Z,10.57
2022-10-13T13:11:50.526Z,14.57
2022-10-13T13:16:34.239Z,10.77
2022-10-13T13:21:20.863Z,9.25
2022-10-13T13:26:11.767Z,8.32
2022-10-13T13:30:55.166Z,9.30
2022-10-13T13:35:39.192Z,12.98
2022-10-13T13:40:26.045Z,13.57
2022-10-13T13:45:13.462Z,10.90
2022-10-13T13:49:58.393Z,16.33
2022-10-13T13:54:42.375Z,17.27
2022-10-13T13:59:27.237Z,14.80
2022-10-13T14:04:10.632Z,14.65
2022-10-13T14:08:54.057Z,15.25
2022-10-13T14:13:37.476Z,14.05
2022-10-13T14:18:22.409Z,17.50
2022-10-13T14:23:06.007Z,16.23
2022-10-13T14:27:49.383Z,14.73
2022-10-13T14:32:32.850Z,14.65
2022-10-13T14:37:22.143Z,19.70
2022-10-13T14:42:06.631Z,16.92
2022-10-13T14:46:50.041Z,17.17
2022-10-13T14:51:34.094Z,17.02
2022-10-13T14:56:21.171Z,16.60
2022-10-13T15:01:05.946Z,15.25
2022-10-13T15:05:49.358Z,16.60
2022-10-13T15:10:32.852Z,19.33
2022-10-13T15:15:17.850Z,19.23
2022-10-13T15:20:01.431Z,18.57
2022-10-13T15:24:45.829Z,27.20
2022-10-13T15:29:29.314Z,41.80
2022-10-13T15:34:14.172Z,41.00
2022-10-13T15:38:57.657Z,33.53
2022-10-13T15:43:41.357Z,25.07
2022-10-13T15:48:25.112Z,23.63
2022-10-13T15:53:10.001Z,23.77
2022-10-13T15:57:53.639Z,27.33
2022-10-13T16:02:37.196Z,28.40
2022-10-13T16:07:20.648Z,24.10
2022-10-13T16:12:05.815Z,25.67
2022-10-13T16:16:49.455Z,28.30
2022-10-13T16:21:32.929Z,24.37
2022-10-13T16:26:17.656Z,24.30
2022-10-13T16:31:07.503Z,23.97
2022-10-13T16:35:51.193Z,24.73
2022-10-13T16:40:34.706Z,27.83
2022-10-13T16:45:21.492Z,25.13
2022-10-13T16:50:12.202Z,23.17
2022-10-13T16:54:55.752Z,25.63
2022-10-13T16:59:39.385Z,25.33
2022-10-13T17:04:23.158Z,21.87
2022-10-13T17:09:08.460Z,23.13
2022-10-13T17:13:52.502Z,24.00
2022-10-13T17:18:36.450Z,23.73
2022-10-13T17:23:20.679Z,23.00
2022-10-13T17:28:08.992Z,26.77
2022-10-13T17:32:53.736Z,22.83
2022-10-13T17:37:37.776Z,28.93
2022-10-13T17:42:24.622Z,21.57
2022-10-13T17:47:11.916Z,31.43
2022-10-13T17:51:56.923Z,37.60
2022-10-13T17:56:42.260Z,27.47
2022-10-13T18:01:32.296Z,24.73
2022-10-13T18:06:18.063Z,30.63
2022-10-13T18:11:09.485Z,28.57
2022-10-13T18:16:03.118Z,18.80
2022-10-13T18:20:50.937Z,24.27
2022-10-13T18:25:41.508Z,23.00
2022-10-13T18:30:27.335Z,22.13
2022-10-13T18:35:12.266Z,24.97
2022-10-13T18:39:57.364Z,35.97
2022-10-13T18:44:43.371Z,30.60
2022-10-13T18:49:33.713Z,27.37
2022-10-13T18:54:20.347Z,33.27
2022-10-13T18:59:10.633Z,35.33
2022-10-13T19:03:56.943Z,32.17
2022-10-13T19:08:41.073Z,31.90
2022-10-13T19:13:26.889Z,34.30
2022-10-13T19:18:11.469Z,34.57
2022-10-13T19:22:58.130Z,29.97
2022-10-13T19:27:43.681Z,31.83
2022-10-13T19:32:32.875Z,30.27
2022-10-13T19:37:18.642Z,27.43
2022-10-13T19:42:06.875Z,26.77
2022-10-13T19:46:51.703Z,17.13
2022-10-13T19:51:37.084Z,14.20
2022-10-13T19:56:23.814Z,12.93
2022-10-13T20:01:11.158Z,9.37
2022-10-13T20:05:54.908Z,3.60
2022-10-13T20:10:40.099Z,4.27
2022-10-13T20:15:24.831Z,4.10
2022-10-13T20:20:12.569Z,4.70
2022-10-13T20:24:56.604Z,4.50
2022-10-13T20:29:40.064Z,4.40
2022-10-13T20:34:23.608Z,4.23
2022-10-13T20:39:09.242Z,4.60
2022-10-13T20:43:54.245Z,3.00
2022-10-13T20:49:05.194Z,3.93
2022-10-13T20:53:44.334Z,3.23
2022-10-13T20:58:31.450Z,3.67
2022-10-13T21:03:14.950Z,3.03
2022-10-13T21:07:58.680Z,3.53
2022-10-13T21:12:42.321Z,5.17
2022-10-13T21:17:30.166Z,4.37
2022-10-13T21:22:13.791Z,8.13
2022-10-13T21:26:58.049Z,5.20
2022-10-13T21:31:42.306Z,3.50
2022-10-13T21:36:30.143Z,7.90
2022-10-13T21:41:15.774Z,4.93
2022-10-13T21:45:59.383Z,3.93
2022-10-13T21:50:43.271Z,2.83
2022-10-13T21:55:28.356Z,2.40
2022-10-13T22:00:13.255Z,2.57
2022-10-13T22:04:56.676Z,4.13
2022-10-13T22:09:40.516Z,4.57
2022-10-13T22:14:25.506Z,3.47
2022-10-13T22:19:09.420Z,3.20
2022-10-13T22:23:58.333Z,2.30
2022-10-13T22:28:42.838Z,4.77
2022-10-13T22:33:27.854Z,2.37
2022-10-13T22:38:11.317Z,2.93
2022-10-13T22:42:54.761Z,5.50
2022-10-13T22:47:38.245Z,3.67
2022-10-13T22:52:23.122Z,2.23
2022-10-13T22:57:06.606Z,6.03
2022-10-13T23:01:50.863Z,2.77
2022-10-13T23:06:36.217Z,5.50
2022-10-13T23:11:21.788Z,6.27
2022-10-13T23:16:06.640Z,4.17
2022-10-13T23:20:54.364Z,3.07
2022-10-13T23:25:55.743Z,2.00
2022-10-13T23:30:40.751Z,4.63
2022-10-13T23:35:27.148Z,5.10
2022-10-13T23:40:11.793Z,6.13
2022-10-13T23:44:55.376Z,5.23
2022-10-13T23:49:40.267Z,5.07
2022-10-13T23:54:23.835Z,4.17
2022-10-13T23:59:07.417Z,2.97
